createdAt,value
2023-02-13T00:01:01.799Z,102299.21
2023-02-13T00:06:08.268Z,102297.70
2023-02-13T00:11:14.012Z,102299.59
2023-02-13T00:16:19.631Z,102305.20
2023-02-13T00:21:25.534Z,102297.40
2023-02-13T00:26:31.220Z,102282.36
2023-02-13T00:31:37.203Z,102276.63
2023-02-13T00:36:46.391Z,102274.08
2023-02-13T00:41:52.232Z,102277.25
2023-02-13T00:46:58.054Z,102289.66
2023-02-13T00:52:03.857Z,102284.70
2023-02-13T00:57:09.675Z,102290.17
2023-02-13T01:02:15.310Z,102295.80
2023-02-13T01:07:21.012Z,102295.30
2023-02-13T01:12:26.523Z,102291.75
2023-02-13T01:17:32.089Z,102292.04
2023-02-13T01:22:37.978Z,102288.11
2023-02-13T01:27:43.726Z,102284.86
2023-02-13T01:32:49.677Z,102280.63
2023-02-13T01:37:55.932Z,102268.82
2023-02-13T01:43:02.825Z,102267.98
2023-02-13T01:48:14.186Z,102274.29
2023-02-13T01:53:25.260Z,102271.79
2023-02-13T01:58:31.319Z,102271.21
2023-02-13T02:03:40.495Z,102278.96
2023-02-13T02:08:50.348Z,102278.45
2023-02-13T02:14:00.887Z,102273.88
2023-02-13T02:19:24.566Z,102272.33
2023-02-13T02:25:04.024Z,102278.59
2023-02-13T02:30:36.010Z,102278.46
2023-02-13T02:35:54.831Z,102275.37
2023-02-13T02:41:11.756Z,102270.77
2023-02-13T02:46:26.072Z,102271.27
2023-02-13T02:51:39.758Z,102269.41
2023-02-13T02:56:46.821Z,102279.67
2023-02-13T03:02:15.093Z,102282.48
2023-02-13T03:07:21.269Z,102282.95
2023-02-13T03:12:55.067Z,102276.28
2023-02-13T03:18:20.174Z,102273.39
2023-02-13T03:23:35.740Z,102269.43
2023-02-13T03:29:08.770Z,102266.89
2023-02-13T03:34:20.849Z,102263.01
2023-02-13T03:39:36.765Z,102262.83
2023-02-13T03:45:09.727Z,102267.77
2023-02-13T03:50:16.292Z,102268.10
2023-02-13T03:55:44.106Z,102261.87
2023-02-13T04:00:54.385Z,102264.86
2023-02-13T04:06:09.206Z,102264.68
2023-02-13T04:11:21.713Z,102265.96
2023-02-13T04:16:35.338Z,102262.02
2023-02-13T04:21:43.356Z,102261.48
2023-02-13T04:26:49.006Z,102264.24
2023-02-13T04:31:55.064Z,102267.20
2023-02-13T04:37:00.641Z,102265.11
2023-02-13T04:42:06.397Z,102267.94
2023-02-13T04:47:12.922Z,102269.44
2023-02-13T04:52:19.028Z,102271.13
2023-02-13T04:57:24.708Z,102267.05
2023-02-13T05:02:31.128Z,102264.05
2023-02-13T05:07:37.419Z,102261.98
2023-02-13T05:12:43.208Z,102256.55
2023-02-13T05:17:49.188Z,102253.52
2023-02-13T05:23:14.132Z,102258.73
2023-02-13T05:28:38.576Z,102261.80
2023-02-13T05:33:44.563Z,102262.20
2023-02-13T05:38:50.413Z,102257.77
2023-02-13T05:43:56.084Z,102257.55
2023-02-13T05:49:04.543Z,102259.68
2023-02-13T05:54:10.605Z,102276.64
2023-02-13T05:59:16.328Z,102277.63
2023-02-13T06:04:22.055Z,102281.35
2023-02-13T06:09:27.735Z,102285.20
2023-02-13T06:14:33.488Z,102289.88
2023-02-13T06:19:39.494Z,102290.37
2023-02-13T06:24:45.397Z,102286.31
2023-02-13T06:29:51.120Z,102289.02
2023-02-13T06:34:56.956Z,102282.84
2023-02-13T06:40:03.228Z,102284.98
2023-02-13T06:45:13.835Z,102291.98
2023-02-13T06:50:18.718Z,102295.09
2023-02-13T06:55:24.432Z,102291.13
2023-02-13T07:00:30.520Z,102289.88
2023-02-13T07:05:39.177Z,102279.64
2023-02-13T07:10:45.099Z,102271.33
2023-02-13T07:15:51.710Z,102273.16
2023-02-13T07:20:59.582Z,102270.54
2023-02-13T07:26:11.216Z,102272.87
2023-02-13T07:31:19.405Z,102279.05
2023-02-13T07:36:26.469Z,102287.55
2023-02-13T07:41:32.575Z,102292.06
2023-02-13T07:46:42.821Z,102291.52
2023-02-13T07:51:49.703Z,102288.02
2023-02-13T07:56:56.374Z,102290.22
2023-02-13T08:02:04.026Z,102291.61
2023-02-13T08:07:11.359Z,102290.42
2023-02-13T08:12:17.363Z,102285.05
2023-02-13T08:17:23.317Z,102278.77
2023-02-13T08:22:29.187Z,102275.13
2023-02-13T08:27:35.303Z,102272.42
2023-02-13T08:32:53.578Z,102272.52
2023-02-13T08:38:03.961Z,102274.67
2023-02-13T08:43:09.756Z,102273.40
2023-02-13T08:48:15.675Z,102266.11
2023-02-13T08:53:23.241Z,102259.21
2023-02-13T08:58:29.680Z,102254.13
2023-02-13T09:03:36.563Z,102259.16
2023-02-13T09:08:42.915Z,102262.38
2023-02-13T09:13:49.276Z,102262.23
2023-02-13T09:18:55.619Z,102263.59
2023-02-13T09:24:01.553Z,102264.09
2023-02-13T09:29:07.526Z,102263.64
2023-02-13T09:34:13.421Z,102269.61
2023-02-13T09:39:19.069Z,102273.16
2023-02-13T09:44:34.404Z,102267.88
2023-02-13T09:49:44.311Z,102262.41
2023-02-13T09:54:50.350Z,102258.02
2023-02-13T10:00:04.165Z,102251.83
2023-02-13T10:05:23.954Z,102260.55
2023-02-13T10:10:44.193Z,102267.70
2023-02-13T10:15:57.908Z,102269.19
2023-02-13T10:21:06.602Z,102277.61
2023-02-13T10:26:20.281Z,102274.73
2023-02-13T10:31:26.489Z,102269.41
2023-02-13T10:36:34.520Z,102271.55
2023-02-13T10:41:50.548Z,102261.35
2023-02-13T10:47:10.800Z,102256.26
2023-02-13T10:52:29.768Z,102247.88
2023-02-13T10:57:53.625Z,102240.40
2023-02-13T11:02:59.904Z,102241.05
2023-02-13T11:08:16.735Z,102243.16
2023-02-13T11:13:24.621Z,102235.52
2023-02-13T11:18:34.323Z,102234.73
2023-02-13T11:23:44.563Z,102226.67
2023-02-13T11:28:54.822Z,102225.52
2023-02-13T11:34:17.403Z,102224.64
2023-02-13T11:39:26.572Z,102216.02
2023-02-13T11:44:33.424Z,102210.61
2023-02-13T11:49:44.447Z,102203.95
2023-02-13T11:54:58.139Z,102203.88
2023-02-13T12:00:31.102Z,102204.60
2023-02-13T12:05:37.545Z,102199.98
2023-02-13T12:10:43.788Z,102185.98
2023-02-13T12:15:57.971Z,102165.66
2023-02-13T12:21:15.564Z,102166.99
2023-02-13T12:26:28.963Z,102167.91
2023-02-13T12:31:45.267Z,102168.73
2023-02-13T12:37:06.841Z,102169.14
2023-02-13T12:42:29.426Z,102159.21
2023-02-13T12:47:44.026Z,102161.99
2023-02-13T12:52:58.070Z,102150.59
2023-02-13T12:58:17.978Z,102142.73
2023-02-13T13:03:43.008Z,102138.32
2023-02-13T13:09:10.055Z,102128.35
2023-02-13T13:14:22.498Z,102117.21
2023-02-13T13:19:36.090Z,102106.01
2023-02-13T13:24:54.607Z,102105.02
2023-02-13T13:30:04.266Z,102104.34
2023-02-13T13:35:14.343Z,102101.84
2023-02-13T13:40:33.729Z,102112.63
2023-02-13T13:45:48.343Z,102100.48
2023-02-13T13:50:55.297Z,102098.50
2023-02-13T13:56:09.850Z,102089.70
2023-02-13T14:01:23.290Z,102089.41
2023-02-13T14:06:49.504Z,102082.19
2023-02-13T14:11:56.771Z,102091.23
2023-02-13T14:17:04.234Z,102091.25
2023-02-13T14:22:36.486Z,102077.74
2023-02-13T14:27:42.582Z,102073.57
2023-02-13T14:32:48.373Z,102077.71
2023-02-13T14:37:59.502Z,102083.70
2023-02-13T14:43:27.324Z,102084.98
2023-02-13T14:48:43.095Z,102077.77
2023-02-13T14:53:54.993Z,102078.84
2023-02-13T14:59:10.022Z,102078.59
2023-02-13T15:04:22.105Z,102074.38
2023-02-13T15:09:35.356Z,102065.24
2023-02-13T15:14:41.227Z,102062.31
2023-02-13T15:19:51.781Z,102049.27
2023-02-13T15:24:58.788Z,102033.99
2023-02-13T15:30:18.208Z,102032.34
2023-02-13T15:35:29.454Z,102040.12
2023-02-13T15:40:37.268Z,102047.63
2023-02-13T15:45:44.354Z,102055.33
2023-02-13T15:50:51.048Z,102054.88
2023-02-13T15:56:02.687Z,102058.40
2023-02-13T16:01:09.513Z,102057.31
2023-02-13T16:06:18.579Z,102057.42
2023-02-13T16:11:30.709Z,102067.00
2023-02-13T16:16:45.048Z,102062.20
2023-02-13T16:21:52.568Z,102054.80
2023-02-13T16:26:58.843Z,102049.95
2023-02-13T16:32:19.499Z,102070.40
2023-02-13T16:37:33.321Z,102067.74
2023-02-13T16:42:39.114Z,102075.52
2023-02-13T16:47:45.136Z,102080.16
2023-02-13T16:52:51.126Z,102079.07
2023-02-13T16:58:03.624Z,102078.65
2023-02-13T17:03:10.946Z,102081.42
2023-02-13T17:08:16.944Z,102084.73
2023-02-13T17:13:24.629Z,102082.77
2023-02-13T17:18:30.305Z,102069.60
2023-02-13T17:23:36.044Z,102060.08
2023-02-13T17:28:42.299Z,102072.32
2023-02-13T17:33:47.960Z,102075.88
2023-02-13T17:38:53.644Z,102071.14
2023-02-13T17:43:59.498Z,102073.02
2023-02-13T17:49:05.661Z,102072.31
2023-02-13T17:54:13.328Z,102088.30
2023-02-13T17:59:19.152Z,102098.40
2023-02-13T18:04:24.921Z,102101.97
2023-02-13T18:09:30.595Z,102107.67
2023-02-13T18:14:36.641Z,102114.27
2023-02-13T18:19:42.873Z,102123.90
2023-02-13T18:24:48.778Z,102119.85
2023-02-13T18:29:55.329Z,102123.81
2023-02-13T18:35:02.759Z,102124.70
2023-02-13T18:40:10.592Z,102112.73
2023-02-13T18:45:16.480Z,102111.26
2023-02-13T18:50:23.423Z,102116.13
2023-02-13T18:55:29.376Z,102114.77
2023-02-13T19:00:35.282Z,102120.64
2023-02-13T19:05:43.612Z,102124.41
2023-02-13T19:10:49.488Z,102125.38
2023-02-13T19:15:55.452Z,102120.67
2023-02-13T19:21:02.968Z,102128.98
2023-02-13T19:26:10.637Z,102130.35
2023-02-13T19:31:18.740Z,102129.48
2023-02-13T19:36:26.244Z,102139.09
2023-02-13T19:41:33.307Z,102140.18
2023-02-13T19:46:39.851Z,102137.92
2023-02-13T19:51:46.699Z,102142.79
2023-02-13T19:56:54.658Z,102151.71
2023-02-13T20:02:00.618Z,102152.34
2023-02-13T20:07:07.644Z,102143.38
2023-02-13T20:12:13.216Z,102149.23
2023-02-13T20:17:18.960Z,102154.70
2023-02-13T20:22:24.598Z,102151.51
2023-02-13T20:27:30.387Z,102148.81
2023-02-13T20:32:37.388Z,102147.40
2023-02-13T20:37:43.483Z,102147.10
2023-02-13T20:42:49.345Z,102141.23
2023-02-13T20:47:55.034Z,102136.84
2023-02-13T20:53:00.863Z,102135.93
2023-02-13T20:58:06.632Z,102136.61
2023-02-13T21:03:12.210Z,102141.24
2023-02-13T21:08:18.294Z,102139.93
2023-02-13T21:13:23.982Z,102134.77
2023-02-13T21:18:29.628Z,102132.17
2023-02-13T21:23:35.681Z,102130.81
2023-02-13T21:28:42.555Z,102134.58
2023-02-13T21:33:48.144Z,102131.58
2023-02-13T21:38:54.203Z,102126.26
2023-02-13T21:43:59.882Z,102120.80
2023-02-13T21:49:07.604Z,102120.24
2023-02-13T21:54:13.911Z,102120.68
2023-02-13T21:59:19.834Z,102113.02
2023-02-13T22:04:25.388Z,102111.30
2023-02-13T22:09:31.016Z,102104.55
2023-02-13T22:14:36.852Z,102108.30
2023-02-13T22:19:42.455Z,102114.80
2023-02-13T22:24:48.210Z,102125.53
2023-02-13T22:29:54.112Z,102126.42
2023-02-13T22:34:59.919Z,102125.84
2023-02-13T22:40:06.960Z,102124.59
2023-02-13T22:45:19.544Z,102119.05
2023-02-13T22:50:25.245Z,102112.20
2023-02-13T22:55:31.239Z,102113.73
2023-02-13T23:00:36.993Z,102106.40
2023-02-13T23:05:42.920Z,102114.83
2023-02-13T23:11:08.795Z,102121.23
2023-02-13T23:16:15.510Z,102131.19
2023-02-13T23:21:21.790Z,102130.48
2023-02-13T23:26:27.644Z,102133.81
2023-02-13T23:31:33.395Z,102136.43
2023-02-13T23:36:39.364Z,102138.24
2023-02-13T23:41:45.111Z,102133.94
2023-02-13T23:46:53.573Z,102120.02
2023-02-13T23:51:59.912Z,102117.92
2023-02-13T23:57:05.984Z,102119.56
